Boyd Deep Canyon Reserve, California Weather observations

Data are for 10 minute period ending at time listed.
 Day   Time   Solar   Ave.   Ave.  Ave.  Vector  Max.   Baro.   Total    
  of    of     Rad.   Air    Rel.  Wind   Wind   Wind  Press.  Precip.   
Year   Day            Temp.  Hum.  Speed  Dir.   Gust                    
2014   (PST)  Kw/m2    F      %     mph   deg.    mph    mb.     in.     
-------------------------------------------------------------------------
 211   19:40   100.00  99999.0   99999  99999.0   99999   99999.0   99999.0   99999.00 
 211   19:50   100.00  99999.0   99999  99999.0   99999   99999.0   99999.0   99999.00 
 211   20:00   100.00  99999.0   99999  99999.0   99999   99999.0   99999.0   99999.00 
 211   20:10   100.00  99999.0   99999  99999.0   99999   99999.0   99999.0   99999.00 
 211   20:20   100.00  99999.0   99999  99999.0   99999   99999.0   99999.0   99999.00 
 211   20:30   100.00  99999.0   99999  99999.0   99999   99999.0   99999.0   99999.00 
 211   20:40   100.00  99999.0   99999  99999.0   99999   99999.0   99999.0   99999.00 
 211   20:50   100.00  99999.0   99999  99999.0   99999   99999.0   99999.0   99999.00 
 211   21:00   100.00  99999.0   99999  99999.0   99999   99999.0   99999.0   99999.00 
 211   21:10   100.00  99999.0   99999  99999.0   99999   99999.0   99999.0   99999.00 
 211   21:20   100.00  99999.0   99999  99999.0   99999   99999.0   99999.0   99999.00 
 211   21:30   100.00  99999.0   99999  99999.0   99999   99999.0   99999.0   99999.00 
 211   21:40   100.00  99999.0   99999  99999.0   99999   99999.0   99999.0   99999.00 
 211   21:50   100.00  99999.0   99999  99999.0   99999   99999.0   99999.0   99999.00 
 211   22:00   100.00  99999.0   99999  99999.0   99999   99999.0   99999.0   99999.00 
 211   22:10   100.00  99999.0   99999  99999.0   99999   99999.0   99999.0   99999.00 
 211   22:20   100.00  99999.0   99999  99999.0   99999   99999.0   99999.0   99999.00 
 211   22:30   100.00  99999.0   99999  99999.0   99999   99999.0   99999.0   99999.00 
 211   22:40   100.00  99999.0   99999  99999.0   99999   99999.0   99999.0   99999.00 
 211   22:50   100.00  99999.0   99999  99999.0   99999   99999.0   99999.0   99999.00 
 211   23:00   100.00  99999.0   99999  99999.0   99999   99999.0   99999.0   99999.00 
 211   23:10   100.00  99999.0   99999  99999.0   99999   99999.0   99999.0   99999.00 
 211   23:20   100.00  99999.0   99999  99999.0   99999   99999.0   99999.0   99999.00 
 211   23:30   100.00  99999.0   99999  99999.0   99999   99999.0   99999.0   99999.00 
 211   23:40   100.00  99999.0   99999  99999.0   99999   99999.0   99999.0   99999.00 
 211   23:50   100.00  99999.0   99999  99999.0   99999   99999.0   99999.0   99999.00 
 212    0:00   100.00  99999.0   99999  99999.0   99999   99999.0   99999.0   99999.00 
 212    0:10   100.00  99999.0   99999  99999.0   99999   99999.0   99999.0   99999.00 
 212    0:20   100.00  99999.0   99999  99999.0   99999   99999.0   99999.0   99999.00 
 212    0:30   100.00  99999.0   99999  99999.0   99999   99999.0   99999.0   99999.00 
 212    0:40   100.00  99999.0   99999  99999.0   99999   99999.0   99999.0   99999.00 
 212    0:50   100.00  99999.0   99999  99999.0   99999   99999.0   99999.0   99999.00 
 212    1:00   100.00  99999.0   99999  99999.0   99999   99999.0   99999.0   99999.00 
 212    1:10   100.00  99999.0   99999  99999.0   99999   99999.0   99999.0   99999.00 
 212    1:20   0.00   91.7    23    5.9    38     9.7   974.5    0.00 
 212    1:30   0.00   89.3    27    2.5    30     6.4   974.7    0.00 
 212    1:40   0.00   88.5    28    2.4    17     4.7   974.6    0.00 
 212    1:50   0.00   88.3    28    1.5   152     3.0   974.6    0.00 
 212    2:00   0.00   88.4    28    2.9   218     4.5   974.6    0.00 
 212    2:10   0.00   88.3    28    3.3   210     4.2   974.5    0.00 
 212    2:20   0.00   89.0    26    2.0   101     3.9   974.7    0.00 
 212    2:30   0.00   89.3    26    0.7    68     1.5   974.8    0.00 
 212    2:40   0.00   88.3    26    1.8   222     4.2   974.8    0.00 
 212    2:50   0.00   88.5    26    4.1   188     5.8   974.7    0.00 
 212    3:00   0.00   88.3    26    1.6    55     4.4   974.8    0.00 
 212    3:10   0.00   87.5    27    1.2   254     3.2   974.8    0.00 
 212    3:20   0.00   87.6    26    2.9   204     3.7   974.9    0.00 
 212    3:30   0.00   88.2    25    2.6   205     3.7   974.9    0.00 
 212    3:40   0.00   88.7    23    2.0   134     3.6   974.9    0.00 
 212    3:50   0.00   90.1    20    2.4   192     7.5   974.8    0.00 
 212    4:00   0.00   92.7    17    5.1   179     8.0   974.8    0.00 
 212    4:10   0.00   93.0    17    5.1   192     8.7   974.8    0.00 
 212    4:20   0.00   93.3    16    7.4   200    11.0   974.9    0.00 
 212    4:30   0.00   93.1    17    7.8   204    11.7   974.9    0.00 
 212    4:40   0.00   93.4    16    9.6   212    14.2   974.9    0.00 
 212    4:50   0.00   93.6    16    9.8   226    14.8   974.9    0.00 
 212    5:00   0.00   93.4    16   10.5   228    14.5   975.0    0.00 
 212    5:10   0.00   93.5    16   10.1   230    15.3   975.1    0.00 
 212    5:20   0.01   93.5    16   10.3   223    14.9   975.2    0.00 
 212    5:30   0.02   93.1    17    9.3   216    14.0   975.3    0.00 
 212    5:40   0.03   93.5    16   11.9   222    17.6   975.3    0.00 
 212    5:50   0.06   93.6    16   10.8   226    16.9   975.3    0.00 
 212    6:00   0.10   94.0    16   11.4   216    16.7   975.3    0.00 
 212    6:10   0.13   94.7    16   11.2   218    18.6   975.3    0.00 
 212    6:20   0.16   95.5    15    9.6   230    14.9   975.4    0.00 
 212    6:30   0.19   96.2    15    7.6   222    11.5   975.5    0.00 
 212    6:40   0.23   96.7    15    8.3   222    14.0   975.5    0.00 
 212    6:50   0.26   97.6    15    5.0   209    11.4   975.6    0.00 
 212    7:00   0.30   94.1    22    4.6    17     8.0   975.6    0.00 
 212    7:10   0.33   92.6    23    4.8    31     7.4   975.7    0.00 
 212    7:20   0.37   93.5    22    2.6    35     4.0   975.8    0.00 
 212    7:30   0.40   94.9    21    2.5    31     4.0   975.9    0.00 
 212    7:40   0.44   95.7    20    1.8    27     3.5   976.0    0.00 
 212    7:50   0.48   98.4    17    0.8   158     2.5   976.0    0.00 
 212    8:00   0.51   99.6    16    1.1   198     2.6   976.2    0.00 
 212    8:10   0.54  101.4    14    1.0    17     2.9   976.3    0.00 
 212    8:20   0.58  102.8    13    0.8    14     3.2   976.3    0.00 
 212    8:30   0.61  102.7    13    1.9    38     3.7   976.4    0.00 
 212    8:40   0.64  102.7    13    2.8    28     5.7   976.5    0.00 
 212    8:50   0.67  102.7    14    4.7     7     8.0   976.5    0.00 
 212    9:00   0.70  102.3    14    6.9     4    10.7   976.5    0.00 
 212    9:10   0.74  102.1    14    6.7     2    10.2   976.7    0.00 
 212    9:20   0.75  103.1    14    6.8     8     9.6   976.7    0.00 
 212    9:30   0.75  102.6    16    8.6    36    11.8   976.8    0.00 
 212    9:40   0.77  102.9    16    6.4    67    11.3   976.8    0.00 
 212    9:50   0.69  102.5    16    7.6    68    11.5   976.8    0.00 
 212   10:00   0.54  101.9    17    7.2    67    10.8   976.8    0.00 
 212   10:10   0.77  101.5    18    6.8    75    10.9   976.7    0.00 
 212   10:20   0.85  101.6    19    8.0    68    12.2   976.7    0.00 
 212   10:30   0.91  101.8    20    7.6    72    12.5   976.7    0.00 
 212   10:40   0.82  101.2    20    8.0    85    12.5   976.6    0.00 
 212   10:50   0.92  101.4    21    9.2    70    13.5   976.6    0.00 
 212   11:00   0.79  100.9    22    9.8    68    14.2   976.6    0.00 
 212   11:10   0.87  100.8    24    8.7    69    13.0   976.5    0.00 
 212   11:20   0.86  101.4    23    9.0    66    14.9   976.4    0.00 
 212   11:30   0.93  101.4    24    9.3    70    14.5   976.4    0.00 
 212   11:40   0.70  100.4    25   10.8    65    18.1   976.4    0.00 
 212   11:50   0.77  100.0    26   10.1    75    16.6   976.3    0.00 
 212   12:00   0.80  100.7    24   10.4    64    18.0   976.1    0.00 
 212   12:10   0.81  100.8    24   10.6    68    18.1   976.1    0.00 
 212   12:20   0.80  101.1    24   10.6    70    17.5   976.0    0.00 
 212   12:30   0.86  101.6    23   10.6    62    16.1   975.9    0.00 
 212   12:40   0.78  102.0    22    9.3    61    15.9   975.8    0.00 
 212   12:50   0.73  102.0    22    7.3    65    14.0   975.8    0.00 
 212   13:00   0.77  102.4    22    6.5    59    12.2   975.7    0.00 
 212   13:10   0.77  103.2    21    4.5    43     9.0   975.6    0.00 
 212   13:20   0.67  102.9    20    3.9    76     7.9   975.6    0.00 
 212   13:30   0.69  103.1    20    3.7    94     7.2   975.5    0.00 
 212   13:40   0.61  103.6    19    3.6    70     7.5   975.3    0.00 
 212   13:50   0.62  103.6    19    4.7    86     9.8   975.2    0.00 
 212   14:00   0.63  104.2    18    5.7    56    10.4   975.0    0.00 
 212   14:10   0.62  104.4    18    5.5    56     9.8   974.9    0.00 
 212   14:20   0.56  104.8    16    6.0    57    11.5   974.9    0.00 
 212   14:30   0.45  103.8    18    5.3    61    11.0   974.7    0.00 
 212   14:40   0.65  103.9    18    6.3    58    12.1   974.7    0.00 
 212   14:50   0.62  104.3    18    4.6    59    11.0   974.6    0.00 
 212   15:00   0.66  104.6    18    5.4    33     9.9   974.5    0.00 
 212   15:10   0.48  104.1    19    4.9    68    10.3   974.3    0.00 
 212   15:20   0.63  104.8    18    5.3    56     9.6   974.2    0.00 
 212   15:30   0.51  105.2    18    5.6    82     9.9   974.1    0.00 
 212   15:40   0.31  104.3    19    6.0    56    10.2   974.0    0.00 
 212   15:50   0.46  103.9    19    6.2    75    11.2   973.9    0.00 
 212   16:00   0.34  104.3    19    7.5    58    11.8   973.8    0.00 
 212   16:10   0.25  103.6    19    7.8    67    11.6   973.7    0.00 
 212   16:20   0.34  103.8    18    7.5    65    12.6   973.7    0.00 
 212   16:30   0.26  103.7    18    7.8    57    13.7   973.6    0.00 
 212   16:40   0.18  103.3    18    8.0    70    12.6   973.5    0.00 
 212   16:50   0.28  103.4    18    7.1    71    12.6   973.5    0.00 
 212   17:00   0.29  104.0    18    7.4    68    12.8   973.4    0.00 
 212   17:10   0.26  103.9    18    8.0    66    12.0   973.4    0.00 
 212   17:20   0.27  103.8    17    7.3    73    12.1   973.4    0.00 
 212   17:30   0.27  104.0    17    7.8    66    12.3   973.5    0.00 
 212   17:40   0.21  103.9    17    7.9    68    12.5   973.4    0.00 
 212   17:50   0.12  103.2    18    7.5    74    11.5   973.4    0.00 
 212   18:00   0.09  102.9    18    8.0    66    12.5   973.4    0.00 
 212   18:10   0.07  102.6    19    7.4    66    11.5   973.5    0.00 
 212   18:20   0.04  102.4    19    4.8    76     7.6   973.5    0.00 
 212   18:30   0.03  102.0    19    6.6    72    10.3   973.5    0.00 
 212   18:40   0.02  101.6    20    6.1    80    10.8   973.5    0.00 
 212   18:50   0.01  101.5    19    4.5    85     8.8   973.5    0.00 
 212   19:00   0.00  101.2    19    5.8    80    10.3   973.6    0.00 
 212   19:10   0.00  100.9    19    5.1    97     9.1   973.7    0.00 
 212   19:20   0.00  100.6    20    5.5    80     9.8   973.8    0.00 
 212   19:30   0.00  100.7    19    4.6   143     9.1   973.8    0.00 

Return to Boyd Deep Canyon Reserve graphs page.


Western Regional Climate Center,wrcc@dri.edu